Time;durP1;ratioP1;P1;durP2;ratioP2;P2;SDS_P1;SDS_P2;PMS_P1;PMS_P2;Temp;Humidity;BMP_temperature;BMP_pressure;BME280_temperature;BME280_humidity;BME280_pressure;Samples;Min_cycle;Max_cycle;Signal;HPM_P1;HPM_P2
2021/06/23 00:01:55;;;;;;;17.98;5.85;;;;;;;;;;4420695;32;20392;-58
2021/06/23 00:04:21;;;;;;;12.63;5.22;;;;;;;;;;4434537;32;20297;-59
2021/06/23 00:06:46;;;;;;;20.55;6.60;;;;;;;;;;4420844;32;20438;-59
2021/06/23 00:09:11;;;;;;;23.33;7.68;;;;;;;;;;4434373;32;20232;-59
2021/06/23 00:11:44;;;;;;;13.40;4.37;;;;;;;;;;4434958;32;20337;-59
2021/06/23 00:14:10;;;;;;;19.42;4.78;;;;;;;;;;4434570;32;20583;-58
2021/06/23 00:16:35;;;;;;;18.52;6.43;;;;;;;;;;4434763;32;20328;-57
2021/06/23 00:19:01;;;;;;;16.62;5.03;;;;;;;;;;4434238;32;20323;-57
2021/06/23 00:21:26;;;;;;;16.67;5.00;;;;;;;;;;4434656;32;20395;-57
2021/06/23 00:23:52;;;;;;;19.00;5.75;;;;;;;;;;4434820;32;20244;-58
2021/06/23 00:26:17;;;;;;;20.17;4.62;;;;;;;;;;4435115;32;20319;-58
2021/06/23 00:28:43;;;;;;;11.35;4.65;;;;;;;;;;4434515;32;20297;-58
2021/06/23 00:31:08;;;;;;;10.80;4.50;;;;;;;;;;4430200;32;20284;-58
2021/06/23 00:33:35;;;;;;;22.95;7.05;;;;;;;;;;4418902;32;20747;-57
2021/06/23 00:36:00;;;;;;;16.75;5.60;;;;;;;;;;4419461;32;20228;-58
2021/06/23 00:38:26;;;;;;;23.87;6.28;;;;;;;;;;4419127;32;20217;-57
2021/06/23 00:40:52;;;;;;;22.65;6.75;;;;;;;;;;4418120;32;20373;-59
2021/06/23 00:43:17;;;;;;;24.73;5.78;;;;;;;;;;4417925;32;20342;-58
2021/06/23 00:45:44;;;;;;;13.23;5.97;;;;;;;;;;4419827;32;20276;-58
2021/06/23 00:48:21;;;;;;;22.05;6.72;;;;;;;;;;4419314;32;20229;-58
2021/06/23 00:50:47;;;;;;;19.48;6.55;;;;;;;;;;4420344;32;20231;-58
2021/06/23 00:53:13;;;;;;;16.65;5.57;;;;;;;;;;4422417;32;20286;-58
2021/06/23 00:55:39;;;;;;;12.95;5.68;;;;;;;;;;4420997;32;20651;-59
2021/06/23 00:58:04;;;;;;;17.50;5.75;;;;;;;;;;4432585;32;20251;-58
2021/06/23 01:00:32;;;;;;;18.90;6.82;;;;;;;;;;4438219;32;20306;-58
2021/06/23 01:02:59;;;;;;;14.27;5.97;;;;;;;;;;4437451;32;20724;-58
2021/06/23 01:05:25;;;;;;;16.75;5.72;;;;;;;;;;4437241;32;20265;-58
2021/06/23 01:07:51;;;;;;;22.83;5.82;;;;;;;;;;4437427;32;20584;-58
2021/06/23 01:10:17;;;;;;;15.60;5.25;;;;;;;;;;4423729;32;20319;-58
2021/06/23 01:13:14;;;;;;;25.98;6.25;;;;;;;;;;4437829;32;20308;-58
2021/06/23 01:15:40;;;;;;;14.98;5.60;;;;;;;;;;4423256;32;20217;-58
2021/06/23 01:18:10;;;;;;;21.15;7.07;;;;;;;;;;4437086;32;20703;-58
2021/06/23 01:20:44;;;;;;;29.33;6.43;;;;;;;;;;4437106;32;20317;-58
2021/06/23 01:23:12;;;;;;;25.23;6.65;;;;;;;;;;4437314;32;20248;-58
2021/06/23 01:25:37;;;;;;;25.45;5.22;;;;;;;;;;4437067;32;20546;-58
2021/06/23 01:28:04;;;;;;;17.05;6.15;;;;;;;;;;4437012;32;20240;-58
2021/06/23 01:30:29;;;;;;;14.05;6.03;;;;;;;;;;4437003;32;20255;-59
2021/06/23 01:32:55;;;;;;;23.38;5.57;;;;;;;;;;4421852;32;20229;-58
2021/06/23 01:35:21;;;;;;;18.65;6.50;;;;;;;;;;4421480;32;20302;-59
2021/06/23 01:37:46;;;;;;;14.90;5.37;;;;;;;;;;4421529;32;20649;-58
2021/06/23 01:40:13;;;;;;;19.15;5.50;;;;;;;;;;4422100;32;20303;-58
2021/06/23 01:42:38;;;;;;;21.12;6.10;;;;;;;;;;4421616;32;20732;-59
2021/06/23 01:45:06;;;;;;;10.48;4.32;;;;;;;;;;4420523;32;20311;-57
2021/06/23 01:47:32;;;;;;;17.10;6.43;;;;;;;;;;4420183;32;20241;-58
2021/06/23 01:49:59;;;;;;;25.50;4.82;;;;;;;;;;4421953;32;20662;-58
2021/06/23 01:52:25;;;;;;;21.02;5.55;;;;;;;;;;4421553;32;20229;-58
2021/06/23 01:54:52;;;;;;;19.55;5.97;;;;;;;;;;4420213;32;20244;-58
2021/06/23 01:57:18;;;;;;;24.33;5.75;;;;;;;;;;4426400;32;20273;-59
2021/06/23 01:59:45;;;;;;;17.30;4.95;;;;;;;;;;4436604;32;20284;-59
2021/06/23 02:02:15;;;;;;;24.40;4.70;;;;;;;;;;4436462;32;20347;-60
2021/06/23 02:04:47;;;;;;;15.02;6.18;;;;;;;;;;4407415;32;20660;-58
2021/06/23 02:07:46;;;;;;;18.50;5.35;;;;;;;;;;4421290;32;20248;-57
2021/06/23 02:10:31;;;;;;;23.52;5.12;;;;;;;;;;4421512;32;20576;-58
2021/06/23 02:13:18;;;;;;;18.30;6.37;;;;;;;;;;4421515;32;20239;-59
2021/06/23 02:15:44;;;;;;;23.02;5.62;;;;;;;;;;4421208;32;20224;-59
2021/06/23 02:18:10;;;;;;;25.12;6.15;;;;;;;;;;4420988;32;20340;-59
2021/06/23 02:20:37;;;;;;;17.83;5.60;;;;;;;;;;4421325;32;20232;-59
2021/06/23 02:23:11;;;;;;;14.65;5.43;;;;;;;;;;4421069;32;20218;-59
2021/06/23 02:25:38;;;;;;;28.83;6.47;;;;;;;;;;4421085;32;20216;-59
2021/06/23 02:28:04;;;;;;;24.52;5.72;;;;;;;;;;4420696;32;20253;-58
2021/06/23 02:30:30;;;;;;;24.08;5.75;;;;;;;;;;4420808;32;20236;-59
2021/06/23 02:32:56;;;;;;;14.75;5.07;;;;;;;;;;4436355;32;20233;-58
2021/06/23 02:35:26;;;;;;;13.95;5.15;;;;;;;;;;4436229;32;20313;-59
2021/06/23 02:37:53;;;;;;;23.52;5.87;;;;;;;;;;4436190;32;20637;-58
2021/06/23 02:40:20;;;;;;;21.70;5.95;;;;;;;;;;4436026;32;20198;-58
2021/06/23 02:42:46;;;;;;;12.43;5.15;;;;;;;;;;4436048;32;20273;-58
2021/06/23 02:45:13;;;;;;;19.70;6.12;;;;;;;;;;4435895;32;20275;-59
2021/06/23 02:47:39;;;;;;;17.17;7.05;;;;;;;;;;4409305;32;20240;-57
2021/06/23 02:50:06;;;;;;;17.83;6.05;;;;;;;;;;4421781;32;20261;-58
2021/06/23 02:52:34;;;;;;;17.33;5.47;;;;;;;;;;4435810;32;20247;-58
2021/06/23 02:55:01;;;;;;;18.37;6.45;;;;;;;;;;4436067;32;20204;-57
2021/06/23 02:57:27;;;;;;;15.43;5.80;;;;;;;;;;4419083;32;20304;-58
2021/06/23 02:59:53;;;;;;;21.73;6.20;;;;;;;;;;4420613;32;20289;-58
2021/06/23 03:02:18;;;;;;;13.15;6.07;;;;;;;;;;4421010;32;20286;-58
2021/06/23 03:04:46;;;;;;;13.80;4.90;;;;;;;;;;4435888;32;20336;-58
2021/06/23 03:07:12;;;;;;;18.10;5.40;;;;;;;;;;4421541;32;20267;-58
2021/06/23 03:09:39;;;;;;;14.90;6.03;;;;;;;;;;4435470;32;20620;-58
2021/06/23 03:12:06;;;;;;;14.40;5.25;;;;;;;;;;4436097;32;20262;-58
2021/06/23 03:14:32;;;;;;;13.30;4.90;;;;;;;;;;4435387;32;20216;-57
2021/06/23 03:16:58;;;;;;;19.08;5.45;;;;;;;;;;4435766;32;20392;-58
2021/06/23 03:19:24;;;;;;;15.90;6.72;;;;;;;;;;4418593;32;20715;-58
2021/06/23 03:21:50;;;;;;;19.87;6.25;;;;;;;;;;4420047;32;20272;-58
2021/06/23 03:24:15;;;;;;;25.05;6.75;;;;;;;;;;4420173;32;20246;-58
2021/06/23 03:26:41;;;;;;;18.02;7.03;;;;;;;;;;4420121;32;20272;-58
2021/06/23 03:29:34;;;;;;;18.95;7.10;;;;;;;;;;4420126;32;20259;-58
2021/06/23 03:32:01;;;;;;;18.77;7.53;;;;;;;;;;4418496;32;20237;-58
2021/06/23 03:34:27;;;;;;;17.00;6.87;;;;;;;;;;4420053;32;20613;-58
2021/06/23 03:36:52;;;;;;;19.45;4.97;;;;;;;;;;4420382;32;20272;-58
2021/06/23 03:39:18;;;;;;;16.00;7.10;;;;;;;;;;4419813;32;20280;-58
2021/06/23 03:41:44;;;;;;;18.80;6.28;;;;;;;;;;4419950;32;20309;-58
2021/06/23 03:44:09;;;;;;;12.10;4.90;;;;;;;;;;4419451;32;20240;-58
2021/06/23 03:46:35;;;;;;;18.08;6.22;;;;;;;;;;4419584;32;20288;-58
2021/06/23 03:49:01;;;;;;;20.90;6.82;;;;;;;;;;4419655;32;20233;-58
2021/06/23 03:51:26;;;;;;;25.50;5.55;;;;;;;;;;4419863;32;20295;-58
2021/06/23 03:53:52;;;;;;;21.08;6.07;;;;;;;;;;4419481;32;20229;-58
2021/06/23 03:56:18;;;;;;;19.10;5.68;;;;;;;;;;4419723;32;20334;-58
2021/06/23 03:58:44;;;;;;;19.25;6.20;;;;;;;;;;4419650;32;20284;-57
2021/06/23 04:01:09;;;;;;;18.83;6.68;;;;;;;;;;4419601;32;20310;-58
2021/06/23 04:03:35;;;;;;;16.98;6.45;;;;;;;;;;4419185;32;20677;-58
2021/06/23 04:06:01;;;;;;;18.92;5.90;;;;;;;;;;4419871;32;20612;-59
2021/06/23 04:08:26;;;;;;;16.90;5.70;;;;;;;;;;4419402;32;20290;-58
2021/06/23 04:10:52;;;;;;;9.40;6.10;;;;;;;;;;4419875;32;20280;-58
2021/06/23 04:13:17;;;;;;;19.67;7.30;;;;;;;;;;4419237;32;20785;-58
2021/06/23 04:15:43;;;;;;;16.83;6.53;;;;;;;;;;4418276;32;20632;-58
2021/06/23 04:18:08;;;;;;;24.77;6.57;;;;;;;;;;4423943;32;20294;-58
2021/06/23 04:20:34;;;;;;;14.68;6.22;;;;;;;;;;4434670;32;20395;-58
2021/06/23 04:22:59;;;;;;;18.25;6.62;;;;;;;;;;4434637;32;20296;-57
2021/06/23 04:25:25;;;;;;;33.40;7.28;;;;;;;;;;4437343;32;20273;-59
2021/06/23 04:27:50;;;;;;;24.77;6.22;;;;;;;;;;4423848;32;20225;-57
2021/06/23 04:30:16;;;;;;;20.40;5.97;;;;;;;;;;4435799;32;20280;-57
2021/06/23 04:32:42;;;;;;;19.75;7.03;;;;;;;;;;4436725;32;20224;-57
2021/06/23 04:35:09;;;;;;;20.70;6.85;;;;;;;;;;4438247;32;20406;-58
2021/06/23 04:37:36;;;;;;;20.98;7.35;;;;;;;;;;4423744;32;20302;-59
2021/06/23 04:40:04;;;;;;;29.00;10.05;;;;;;;;;;4437753;32;20240;-58
2021/06/23 04:42:30;;;;;;;19.52;8.95;;;;;;;;;;4437608;32;20355;-58
2021/06/23 04:44:55;;;;;;;25.35;8.75;;;;;;;;;;4423714;32;20307;-59
2021/06/23 04:47:21;;;;;;;19.50;8.80;;;;;;;;;;4437868;32;20216;-59
2021/06/23 04:49:46;;;;;;;25.70;9.48;;;;;;;;;;4437396;32;20272;-58
2021/06/23 04:52:12;;;;;;;21.62;8.00;;;;;;;;;;4437774;32;20556;-59
2021/06/23 04:54:37;;;;;;;17.00;7.72;;;;;;;;;;4437470;32;20325;-58
2021/06/23 04:57:03;;;;;;;26.17;9.25;;;;;;;;;;4436741;32;20274;-58
2021/06/23 04:59:29;;;;;;;27.35;8.48;;;;;;;;;;4422719;32;20252;-58
2021/06/23 05:01:56;;;;;;;22.25;7.32;;;;;;;;;;4436975;32;20283;-59
2021/06/23 05:04:21;;;;;;;26.05;8.32;;;;;;;;;;4436855;32;20225;-59
2021/06/23 05:06:47;;;;;;;27.20;9.30;;;;;;;;;;4437086;32;20306;-58
2021/06/23 05:09:12;;;;;;;17.40;6.55;;;;;;;;;;4436585;32;20675;-58
2021/06/23 05:11:38;;;;;;;21.02;7.97;;;;;;;;;;4436183;32;20299;-58
2021/06/23 05:14:06;;;;;;;21.35;6.55;;;;;;;;;;4436692;32;20245;-58
2021/06/23 05:16:31;;;;;;;26.27;7.93;;;;;;;;;;4436710;32;20577;-58
2021/06/23 05:18:58;;;;;;;31.80;6.93;;;;;;;;;;4422264;32;20254;-58
2021/06/23 05:21:24;;;;;;;19.67;6.65;;;;;;;;;;4436136;32;20216;-57
2021/06/23 05:23:50;;;;;;;19.62;6.57;;;;;;;;;;4436750;32;20298;-58
2021/06/23 05:26:15;;;;;;;15.65;6.43;;;;;;;;;;4434979;32;20295;-58
2021/06/23 05:28:41;;;;;;;21.67;6.75;;;;;;;;;;4434716;32;20297;-58
2021/06/23 05:31:06;;;;;;;28.08;8.48;;;;;;;;;;4430407;32;20323;-58
2021/06/23 05:33:32;;;;;;;33.08;7.57;;;;;;;;;;4419104;32;20339;-58
2021/06/23 05:35:57;;;;;;;31.90;7.10;;;;;;;;;;4418901;32;20355;-58
2021/06/23 05:38:23;;;;;;;29.15;7.22;;;;;;;;;;4418374;32;20291;-58
2021/06/23 05:40:48;;;;;;;20.90;7.00;;;;;;;;;;4418982;32;20288;-58
2021/06/23 05:43:14;;;;;;;20.48;6.62;;;;;;;;;;4420369;32;20307;-58
2021/06/23 05:45:40;;;;;;;26.45;7.00;;;;;;;;;;4421615;32;20300;-58
2021/06/23 05:48:06;;;;;;;17.45;7.45;;;;;;;;;;4420941;32;20256;-57
2021/06/23 05:50:31;;;;;;;18.40;6.65;;;;;;;;;;4420770;32;20275;-57
2021/06/23 05:52:57;;;;;;;27.08;8.60;;;;;;;;;;4420420;32;20361;-57
2021/06/23 05:55:22;;;;;;;20.02;6.87;;;;;;;;;;4419977;32;20303;-58
2021/06/23 05:57:55;;;;;;;21.27;7.35;;;;;;;;;;4428980;32;20650;-57
2021/06/23 06:00:22;;;;;;;29.37;7.60;;;;;;;;;;4426905;32;20201;-57
2021/06/23 06:02:49;;;;;;;23.45;7.40;;;;;;;;;;4419387;32;20209;-58
2021/06/23 06:05:15;;;;;;;23.12;7.55;;;;;;;;;;4429515;32;20239;-58
2021/06/23 06:07:41;;;;;;;19.55;6.37;;;;;;;;;;4431394;32;20266;-58
2021/06/23 06:10:07;;;;;;;20.62;7.18;;;;;;;;;;4405553;32;20406;-59
2021/06/23 06:12:33;;;;;;;20.17;7.20;;;;;;;;;;4418332;32;20350;-58
2021/06/23 06:14:58;;;;;;;34.78;8.23;;;;;;;;;;4418503;32;20688;-59
2021/06/23 06:17:24;;;;;;;17.33;7.60;;;;;;;;;;4430947;32;20656;-58
2021/06/23 06:22:18;;;;;;;27.55;6.85;;;;;;;;;;4393203;32;20386;-58
2021/06/23 06:24:44;;;;;;;18.83;6.87;;;;;;;;;;4369959;32;20328;-58
2021/06/23 06:27:10;;;;;;;18.45;6.75;;;;;;;;;;4370467;32;20313;-58
2021/06/23 06:29:35;;;;;;;19.45;7.95;;;;;;;;;;4368644;32;20309;-58
2021/06/23 06:32:01;;;;;;;24.20;7.72;;;;;;;;;;4369908;32;20297;-58
2021/06/23 06:34:26;;;;;;;28.77;7.32;;;;;;;;;;4370174;32;20305;-58
2021/06/23 06:36:52;;;;;;;15.95;6.18;;;;;;;;;;4370229;32;20572;-58
2021/06/23 06:39:17;;;;;;;17.70;6.57;;;;;;;;;;4370414;32;20261;-59
2021/06/23 06:41:43;;;;;;;19.33;7.22;;;;;;;;;;4369754;32;20245;-58
2021/06/23 06:44:09;;;;;;;25.62;7.12;;;;;;;;;;4368869;32;20233;-58
2021/06/23 06:46:36;;;;;;;23.87;6.12;;;;;;;;;;4369881;32;20277;-58
2021/06/23 06:49:02;;;;;;;20.83;7.07;;;;;;;;;;4371410;32;20649;-57
2021/06/23 06:51:28;;;;;;;21.62;7.50;;;;;;;;;;4371516;32;20301;-59
2021/06/23 06:53:53;;;;;;;26.62;7.72;;;;;;;;;;4371236;32;20240;-58
2021/06/23 06:56:18;;;;;;;21.20;7.10;;;;;;;;;;4370167;32;20242;-59
2021/06/23 06:58:44;;;;;;;22.58;6.07;;;;;;;;;;4371398;32;20207;-59
2021/06/23 07:01:10;;;;;;;29.73;6.87;;;;;;;;;;4371150;32;20559;-58
2021/06/23 07:03:35;;;;;;;16.20;6.65;;;;;;;;;;4370851;32;20226;-60
2021/06/23 07:06:01;;;;;;;20.33;7.25;;;;;;;;;;4371059;32;20280;-58
2021/06/23 07:08:26;;;;;;;26.52;7.00;;;;;;;;;;4382281;32;20225;-58
2021/06/23 07:10:51;;;;;;;23.75;7.37;;;;;;;;;;4371348;32;20289;-58
2021/06/23 07:13:17;;;;;;;20.27;6.72;;;;;;;;;;4371466;32;20199;-58
2021/06/23 07:15:42;;;;;;;19.85;6.10;;;;;;;;;;4371631;32;20248;-57
2021/06/23 07:18:08;;;;;;;19.40;7.53;;;;;;;;;;4382903;32;20230;-58
2021/06/23 07:20:34;;;;;;;19.27;5.95;;;;;;;;;;4371037;32;20609;-59
2021/06/23 07:22:59;;;;;;;20.77;7.37;;;;;;;;;;4370823;32;20229;-58
2021/06/23 07:25:25;;;;;;;28.33;8.18;;;;;;;;;;4370903;32;20299;-59
2021/06/23 07:27:50;;;;;;;26.45;6.93;;;;;;;;;;4371216;32;20716;-57
2021/06/23 07:30:17;;;;;;;23.55;7.50;;;;;;;;;;4382557;32;20710;-58
2021/06/23 07:32:55;;;;;;;15.50;6.43;;;;;;;;;;4364618;32;20215;-58
2021/06/23 07:38:12;;;;;;;26.87;8.00;;;;;;;;;;4359669;32;20332;-59
2021/06/23 07:43:06;;;;;;;19.27;6.75;;;;;;;;;;4359080;32;20711;-59
2021/06/23 07:45:31;;;;;;;20.50;6.60;;;;;;;;;;4359554;32;20284;-57
2021/06/23 07:47:57;;;;;;;16.70;6.90;;;;;;;;;;4359596;32;20211;-58
2021/06/23 07:50:22;;;;;;;21.95;6.50;;;;;;;;;;4359553;32;20574;-58
2021/06/23 07:53:00;;;;;;;29.02;8.07;;;;;;;;;;4357849;32;20243;-58
2021/06/23 08:09:10;;;;;;;18.65;5.97;;;;;;;;;;4358864;32;20229;-58
2021/06/23 08:11:39;;;;;;;30.30;6.90;;;;;;;;;;4357261;32;20230;-58
2021/06/23 08:14:04;;;;;;;21.90;6.97;;;;;;;;;;4358727;32;20360;-58
2021/06/23 08:16:32;;;;;;;28.55;7.00;;;;;;;;;;4360840;32;20254;-58
2021/06/23 08:18:57;;;;;;;19.75;6.53;;;;;;;;;;4359154;32;20359;-58
2021/06/23 08:21:23;;;;;;;22.80;6.40;;;;;;;;;;4359093;32;20575;-57
2021/06/23 08:28:59;;;;;;;19.10;7.00;;;;;;;;;;4412077;32;20369;-58
2021/06/23 08:31:25;;;;;;;28.55;7.07;;;;;;;;;;4400026;32;20806;-58
2021/06/23 08:33:53;;;;;;;32.30;7.82;;;;;;;;;;4400295;32;20758;-58
2021/06/23 08:36:18;;;;;;;31.80;9.52;;;;;;;;;;4400281;32;20232;-58
2021/06/23 08:38:44;;;;;;;16.65;6.85;;;;;;;;;;4400720;32;20225;-59
2021/06/23 08:41:09;;;;;;;25.02;8.77;;;;;;;;;;4400538;32;20280;-60
2021/06/23 08:43:35;;;;;;;20.77;6.62;;;;;;;;;;4400694;32;20706;-59
2021/06/23 08:46:02;;;;;;;24.10;6.93;;;;;;;;;;4386799;32;20370;-59
2021/06/23 08:48:29;;;;;;;33.03;7.70;;;;;;;;;;4400027;32;20284;-59
2021/06/23 08:50:54;;;;;;;19.95;5.60;;;;;;;;;;4400301;32;20624;-59
2021/06/23 08:53:20;;;;;;;32.90;7.18;;;;;;;;;;4400121;32;20321;-59
2021/06/23 08:55:45;;;;;;;26.02;7.25;;;;;;;;;;4400421;32;20645;-58
2021/06/23 08:58:11;;;;;;;30.33;6.45;;;;;;;;;;4400356;32;20531;-59
2021/06/23 09:00:36;;;;;;;19.35;5.12;;;;;;;;;;4400578;32;20264;-59
2021/06/23 09:03:06;;;;;;;24.60;6.22;;;;;;;;;;4386561;32;20229;-58
2021/06/23 09:05:52;;;;;;;33.35;6.80;;;;;;;;;;4400238;32;20210;-58
2021/06/23 09:08:30;;;;;;;18.62;6.28;;;;;;;;;;4385866;32;20301;-58
2021/06/23 09:10:56;;;;;;;20.80;6.80;;;;;;;;;;4400534;32;20248;-58
2021/06/23 09:13:21;;;;;;;34.95;7.57;;;;;;;;;;4400283;32;20689;-59
2021/06/23 09:15:54;;;;;;;22.30;6.10;;;;;;;;;;4400568;32;20265;-59
2021/06/23 09:18:22;;;;;;;28.10;7.78;;;;;;;;;;4400362;32;20321;-58
2021/06/23 09:20:52;;;;;;;30.85;6.45;;;;;;;;;;4400386;32;20251;-58
2021/06/23 09:23:19;;;;;;;28.90;7.95;;;;;;;;;;4400218;32;20271;-58
2021/06/23 09:25:46;;;;;;;28.05;6.15;;;;;;;;;;4386727;32;20225;-59
2021/06/23 09:28:17;;;;;;;21.85;6.65;;;;;;;;;;4373706;32;20241;-59
2021/06/23 09:30:46;;;;;;;22.45;6.20;;;;;;;;;;4400628;32;20218;-58
2021/06/23 09:33:23;;;;;;;25.45;7.45;;;;;;;;;;4400210;32;20324;-59
2021/06/23 09:36:00;;;;;;;25.88;7.37;;;;;;;;;;4400354;32;20201;-59
2021/06/23 09:38:40;;;;;;;32.47;6.93;;;;;;;;;;4384483;32;20456;-60
2021/06/23 09:41:33;;;;;;;24.83;7.18;;;;;;;;;;4390019;32;20304;-58
2021/06/23 09:44:06;;;;;;;18.37;6.18;;;;;;;;;;4390115;32;20307;-59
2021/06/23 09:46:40;;;;;;;30.12;7.37;;;;;;;;;;4375263;32;20247;-58
2021/06/23 09:49:06;;;;;;;33.72;6.78;;;;;;;;;;4389221;32;20628;-60
2021/06/23 09:52:02;;;;;;;16.40;5.43;;;;;;;;;;4389878;32;20352;-59
2021/06/23 09:54:30;;;;;;;31.80;6.62;;;;;;;;;;4377920;32;20674;-60
2021/06/23 09:57:02;;;;;;;27.10;7.72;;;;;;;;;;4389909;32;20324;-59
2021/06/23 09:59:37;;;;;;;25.70;6.47;;;;;;;;;;4389391;32;20217;-59
2021/06/23 10:02:05;;;;;;;33.83;6.43;;;;;;;;;;4375596;32;20699;-59
2021/06/23 10:04:35;;;;;;;23.23;8.07;;;;;;;;;;4388985;32;20546;-59
2021/06/23 10:07:02;;;;;;;21.52;6.05;;;;;;;;;;4389429;32;21371;-58
2021/06/23 10:09:29;;;;;;;29.95;7.32;;;;;;;;;;4389407;32;20286;-59
2021/06/23 10:12:02;;;;;;;26.73;7.28;;;;;;;;;;4376006;32;20374;-58
2021/06/23 10:14:30;;;;;;;23.42;6.87;;;;;;;;;;4389462;32;20277;-57
2021/06/23 10:17:00;;;;;;;31.95;7.00;;;;;;;;;;4389114;32;20293;-59
2021/06/23 10:19:26;;;;;;;38.35;8.02;;;;;;;;;;4389968;32;20553;-58
2021/06/23 10:21:54;;;;;;;23.75;6.00;;;;;;;;;;4389659;32;20225;-59
2021/06/23 10:24:20;;;;;;;14.70;5.80;;;;;;;;;;4389522;32;20236;-58
2021/06/23 10:26:49;;;;;;;45.97;7.95;;;;;;;;;;4375562;32;20340;-59
2021/06/23 10:29:20;;;;;;;28.40;7.28;;;;;;;;;;4389065;32;20255;-59
2021/06/23 10:31:46;;;;;;;19.52;5.37;;;;;;;;;;4390095;32;20372;-58
2021/06/23 10:34:15;;;;;;;15.48;6.30;;;;;;;;;;4389327;32;20671;-59
2021/06/23 10:36:42;;;;;;;34.60;8.10;;;;;;;;;;4375692;32;20276;-59
2021/06/23 10:39:08;;;;;;;23.27;7.25;;;;;;;;;;4389400;32;20210;-57
2021/06/23 10:41:36;;;;;;;34.78;7.03;;;;;;;;;;4375427;32;20297;-59
2021/06/23 10:44:43;;;;;;;23.73;5.78;;;;;;;;;;4389368;32;20363;-58
2021/06/23 10:47:28;;;;;;;27.35;6.28;;;;;;;;;;4375424;32;20272;-59
2021/06/23 10:49:54;;;;;;;29.58;6.32;;;;;;;;;;4389021;32;20326;-59
2021/06/23 10:52:22;;;;;;;26.80;7.25;;;;;;;;;;4388857;32;20304;-59
2021/06/23 10:54:52;;;;;;;26.35;6.62;;;;;;;;;;4389247;32;20824;-60
2021/06/23 10:57:24;;;;;;;27.62;6.80;;;;;;;;;;4375864;32;20218;-58
2021/06/23 10:59:52;;;;;;;32.90;7.72;;;;;;;;;;4388925;32;20527;-58
2021/06/23 11:02:18;;;;;;;27.23;7.37;;;;;;;;;;4388300;32;20276;-57
2021/06/23 11:05:11;;;;;;;30.27;8.57;;;;;;;;;;4388655;32;20213;-60
2021/06/23 11:07:41;;;;;;;27.65;7.25;;;;;;;;;;4365453;32;20241;-59
2021/06/23 11:10:17;;;;;;;25.12;6.85;;;;;;;;;;4374500;32;20734;-59
2021/06/23 11:12:59;;;;;;;31.02;7.30;;;;;;;;;;4374549;32;20226;-60
2021/06/23 11:15:41;;;;;;;25.75;8.15;;;;;;;;;;4386824;32;20309;-60
2021/06/23 11:18:22;;;;;;;16.20;7.00;;;;;;;;;;4388282;32;20287;-60
2021/06/23 11:20:54;;;;;;;20.30;5.75;;;;;;;;;;4388037;32;20271;-60
2021/06/23 11:23:58;;;;;;;27.73;6.43;;;;;;;;;;4387794;32;20264;-60
2021/06/23 11:26:24;;;;;;;27.62;7.90;;;;;;;;;;4388194;32;20678;-60
2021/06/23 11:29:13;;;;;;;24.33;7.45;;;;;;;;;;4374505;32;20283;-60
2021/06/23 11:31:43;;;;;;;26.17;6.28;;;;;;;;;;4380350;32;20273;-59
2021/06/23 11:34:09;;;;;;;18.75;6.10;;;;;;;;;;4388273;32;20259;-60
2021/06/23 11:36:34;;;;;;;29.33;6.50;;;;;;;;;;4388246;32;20368;-60
2021/06/23 11:39:02;;;;;;;18.87;6.07;;;;;;;;;;4374577;32;20774;-60
2021/06/23 11:41:27;;;;;;;21.20;5.47;;;;;;;;;;4388142;32;20237;-59
2021/06/23 11:43:53;;;;;;;16.08;5.87;;;;;;;;;;4388084;32;20685;-60
2021/06/23 11:46:19;;;;;;;19.60;5.30;;;;;;;;;;4388095;32;20321;-60
2021/06/23 11:48:44;;;;;;;23.08;6.32;;;;;;;;;;4388118;32;20230;-59
2021/06/23 11:51:11;;;;;;;18.02;5.47;;;;;;;;;;4388146;32;20264;-60
2021/06/23 11:53:38;;;;;;;11.15;5.55;;;;;;;;;;4374910;32;20234;-60
2021/06/23 11:56:04;;;;;;;22.80;6.37;;;;;;;;;;4387775;32;20289;-60
2021/06/23 11:58:30;;;;;;;16.55;7.05;;;;;;;;;;4374150;32;20361;-59
2021/06/23 12:00:56;;;;;;;18.70;5.75;;;;;;;;;;4387589;32;20336;-60
2021/06/23 12:03:22;;;;;;;20.77;4.75;;;;;;;;;;4387533;32;20213;-59
2021/06/23 12:05:48;;;;;;;31.50;6.70;;;;;;;;;;4388256;32;20337;-59
2021/06/23 12:08:15;;;;;;;20.00;6.05;;;;;;;;;;4374379;32;21409;-59
2021/06/23 12:10:41;;;;;;;23.33;5.68;;;;;;;;;;4389024;32;20202;-58
2021/06/23 12:13:09;;;;;;;20.60;6.45;;;;;;;;;;4389536;32;20280;-58
2021/06/23 12:15:35;;;;;;;20.90;5.32;;;;;;;;;;4389260;32;20246;-60
2021/06/23 12:18:06;;;;;;;32.33;5.90;;;;;;;;;;4389631;32;20248;-60
2021/06/23 12:20:33;;;;;;;19.58;6.18;;;;;;;;;;4390217;32;20281;-59
2021/06/23 12:23:01;;;;;;;21.92;7.05;;;;;;;;;;4375894;32;20242;-58
2021/06/23 12:25:29;;;;;;;22.52;6.30;;;;;;;;;;4389569;32;20214;-59
2021/06/23 12:27:55;;;;;;;22.10;5.22;;;;;;;;;;4389092;32;20304;-59
2021/06/23 12:30:22;;;;;;;17.50;5.55;;;;;;;;;;4391838;32;20225;-59
2021/06/23 12:32:47;;;;;;;15.88;5.65;;;;;;;;;;4389743;32;20322;-59
2021/06/23 12:35:13;;;;;;;16.62;5.75;;;;;;;;;;4389544;32;20296;-60
2021/06/23 12:37:39;;;;;;;19.85;6.30;;;;;;;;;;4376307;32;20229;-59
2021/06/23 12:40:06;;;;;;;19.23;5.75;;;;;;;;;;4389442;32;20222;-58
2021/06/23 12:42:31;;;;;;;31.95;6.30;;;;;;;;;;4389717;32;20246;-58
2021/06/23 12:44:57;;;;;;;23.85;5.65;;;;;;;;;;4375909;32;20335;-58
2021/06/23 12:47:22;;;;;;;16.83;5.18;;;;;;;;;;4387103;32;20242;-59
2021/06/23 12:49:48;;;;;;;18.60;5.20;;;;;;;;;;4389168;32;20304;-59
2021/06/23 12:52:13;;;;;;;25.27;5.10;;;;;;;;;;4388928;32;20462;-58
2021/06/23 12:54:39;;;;;;;20.77;4.85;;;;;;;;;;4388896;32;20285;-58
2021/06/23 12:57:05;;;;;;;14.18;4.95;;;;;;;;;;4389499;32;20222;-59
2021/06/23 12:59:31;;;;;;;29.05;6.78;;;;;;;;;;4389135;32;20213;-59
2021/06/23 13:01:58;;;;;;;17.33;4.78;;;;;;;;;;4389404;32;20222;-59
2021/06/23 13:04:24;;;;;;;22.37;6.20;;;;;;;;;;4388869;32;20284;-59
2021/06/23 13:06:49;;;;;;;22.20;6.28;;;;;;;;;;4389114;32;20390;-59
2021/06/23 13:09:15;;;;;;;26.70;4.87;;;;;;;;;;4388773;32;20288;-59
2021/06/23 13:11:40;;;;;;;16.98;5.00;;;;;;;;;;4388896;32;20289;-59
2021/06/23 13:14:06;;;;;;;22.60;5.80;;;;;;;;;;4390001;32;20214;-59
2021/06/23 13:16:31;;;;;;;19.70;5.07;;;;;;;;;;4391971;32;20751;-59
2021/06/23 13:18:57;;;;;;;29.37;4.90;;;;;;;;;;4377950;32;20251;-59
2021/06/23 13:21:23;;;;;;;16.83;5.05;;;;;;;;;;4391883;32;20299;-60
2021/06/23 13:23:49;;;;;;;15.10;4.78;;;;;;;;;;4391397;32;20849;-58
2021/06/23 13:26:16;;;;;;;16.55;5.28;;;;;;;;;;4391180;32;20299;-58
2021/06/23 13:28:41;;;;;;;25.58;6.03;;;;;;;;;;4377497;32;20310;-58
2021/06/23 13:31:07;;;;;;;20.12;5.18;;;;;;;;;;4394576;32;20284;-59
2021/06/23 13:33:33;;;;;;;19.83;4.75;;;;;;;;;;4391398;32;20544;-58
2021/06/23 13:35:59;;;;;;;16.87;4.50;;;;;;;;;;4391862;32;20356;-58
2021/06/23 13:38:26;;;;;;;24.50;4.50;;;;;;;;;;4391802;32;20220;-57
2021/06/23 13:40:53;;;;;;;17.10;4.72;;;;;;;;;;4391502;32;20353;-60
2021/06/23 13:43:19;;;;;;;16.30;3.83;;;;;;;;;;4391361;32;20221;-59
2021/06/23 13:45:44;;;;;;;14.80;4.43;;;;;;;;;;4377578;32;20315;-59
2021/06/23 13:48:10;;;;;;;19.62;5.07;;;;;;;;;;4391207;32;20222;-59
2021/06/23 13:50:35;;;;;;;13.73;3.70;;;;;;;;;;4391473;32;20281;-58
2021/06/23 13:53:03;;;;;;;16.62;4.62;;;;;;;;;;4378686;32;20210;-59
2021/06/23 13:55:30;;;;;;;16.50;4.50;;;;;;;;;;4384557;32;20218;-59
2021/06/23 13:57:59;;;;;;;15.35;3.92;;;;;;;;;;4391194;32;20305;-59
2021/06/23 14:00:26;;;;;;;14.50;3.80;;;;;;;;;;4390530;32;20882;-59
2021/06/23 14:02:52;;;;;;;28.40;4.30;;;;;;;;;;4391136;32;20697;-59
2021/06/23 14:05:18;;;;;;;18.90;3.70;;;;;;;;;;4377376;32;20368;-58
2021/06/23 14:07:44;;;;;;;12.15;3.67;;;;;;;;;;4377500;32;20685;-58
2021/06/23 14:10:10;;;;;;;11.35;3.97;;;;;;;;;;4391252;32;20338;-59
2021/06/23 14:12:36;;;;;;;25.20;5.07;;;;;;;;;;4391399;32;20661;-58
2021/06/23 14:15:03;;;;;;;19.27;5.07;;;;;;;;;;4377076;32;20206;-58
2021/06/23 14:17:28;;;;;;;13.23;3.75;;;;;;;;;;4390828;32;20558;-59
2021/06/23 14:19:55;;;;;;;19.55;4.15;;;;;;;;;;4391187;32;20261;-59
2021/06/23 14:22:21;;;;;;;19.15;4.68;;;;;;;;;;4390667;32;20301;-59
2021/06/23 14:24:46;;;;;;;13.73;4.22;;;;;;;;;;4390166;32;20554;-59
2021/06/23 14:27:12;;;;;;;15.15;3.72;;;;;;;;;;4377528;32;20535;-59
2021/06/23 14:29:37;;;;;;;22.33;3.97;;;;;;;;;;4374924;32;20214;-59
2021/06/23 14:32:03;;;;;;;13.38;4.07;;;;;;;;;;4391896;32;20285;-58
2021/06/23 14:34:29;;;;;;;16.02;3.78;;;;;;;;;;4390544;32;20634;-59
2021/06/23 14:36:54;;;;;;;16.52;5.75;;;;;;;;;;4388041;32;20288;-59
2021/06/23 14:39:20;;;;;;;12.43;4.30;;;;;;;;;;4390457;32;20593;-59
2021/06/23 14:41:45;;;;;;;18.77;4.07;;;;;;;;;;4390174;32;20293;-59
2021/06/23 14:44:11;;;;;;;8.68;3.85;;;;;;;;;;4389938;32;20233;-58
2021/06/23 14:46:37;;;;;;;24.37;4.30;;;;;;;;;;4389950;32;20734;-58
2021/06/23 14:49:04;;;;;;;12.52;3.87;;;;;;;;;;4389756;32;20220;-58
2021/06/23 14:51:30;;;;;;;18.02;3.65;;;;;;;;;;4390078;32;20270;-59
2021/06/23 14:53:55;;;;;;;14.87;4.22;;;;;;;;;;4389318;32;20618;-60
2021/06/23 14:56:21;;;;;;;20.25;4.82;;;;;;;;;;4389977;32;20311;-59
2021/06/23 14:58:47;;;;;;;14.18;4.68;;;;;;;;;;4390271;32;20764;-59
2021/06/23 15:01:13;;;;;;;11.82;4.35;;;;;;;;;;4390392;32;20368;-58